New Mine, Texas
Current Conditions -  °F | °C
As of 10:15 AM on Tuesday 21 Oct 2014 (Local Time) from KOSA Reporting Station
Scattered Clouds Scattered Clouds  
Wind Chill: 67°   Ceiling: Unl
Heat Index: 67°   Visibility: 10mi
Dew Point: 58°   Wind: 0mph
Humidity: 71%   Direction: NA
Pressure: 30.15"   Gusts: NA
Location:  32.9352°N, 94.9553°W
Report Text: KOSA 211515Z AUTO 00000KT 10SM SCT050 20/14 A3015 RMK AO1 T01950142
Loading
Personal Weather Stations






























Interactive Weather Map
Tropical Storm Tracking
New forecast layout! Learn more

10-Day Weather Forecast

Advertisements
Track Severe Weather on mobile